Time;durP1;ratioP1;P1;durP2;ratioP2;P2;SDS_P1;SDS_P2;PMS_P1;PMS_P2;Temp;Humidity;BMP_temperature;BMP_pressure;BME280_temperature;BME280_humidity;BME280_pressure;Samples;Min_cycle;Max_cycle;Signal;HPM_P1;HPM_P2
2022/12/07 00:00:24;;;;;;;23.70;13.82;;;;;;;2.72;100.00;100458.84;6306995;28;20072;-87
2022/12/07 00:03:26;;;;;;;26.77;13.95;;;;;;;2.74;100.00;100461.34;6307426;28;20043;-87
2022/12/07 00:06:28;;;;;;;28.38;13.18;;;;;;;2.78;100.00;100453.47;6302685;28;20504;-87
2022/12/07 00:09:31;;;;;;;25.20;13.60;;;;;;;2.79;100.00;100449.16;6308333;28;20032;-87
2022/12/07 00:12:32;;;;;;;25.40;14.00;;;;;;;2.81;100.00;100452.47;6307366;28;20040;-88
2022/12/07 00:15:35;;;;;;;28.33;13.88;;;;;;;2.87;100.00;100448.78;6308577;28;20127;-87
2022/12/07 00:18:37;;;;;;;24.67;13.43;;;;;;;2.85;100.00;100437.81;6304379;28;20051;-87
2022/12/07 00:21:40;;;;;;;22.45;12.95;;;;;;;2.93;100.00;100446.78;6310090;28;20494;-87
2022/12/07 00:24:42;;;;;;;21.73;12.70;;;;;;;2.91;100.00;100435.78;6305633;28;20123;-87
2022/12/07 00:27:43;;;;;;;25.50;12.77;;;;;;;2.95;100.00;100439.00;6312578;28;20063;-87
2022/12/07 00:30:45;;;;;;;22.95;13.45;;;;;;;2.95;100.00;100439.00;6312256;28;20044;-87
2022/12/07 00:33:47;;;;;;;23.70;14.05;;;;;;;2.89;100.00;100439.31;6312380;28;20032;-88
2022/12/07 00:36:49;;;;;;;23.67;12.98;;;;;;;2.89;100.00;100436.78;6311422;28;20543;-87
2022/12/07 00:39:50;;;;;;;23.05;13.55;;;;;;;2.86;100.00;100430.09;6311918;28;20176;-87
2022/12/07 00:42:52;;;;;;;25.40;13.75;;;;;;;2.87;100.00;100436.84;6311938;28;20044;-87
2022/12/07 00:45:56;;;;;;;21.35;11.80;;;;;;;2.94;100.00;100439.94;6312094;28;20047;-87
2022/12/07 00:48:58;;;;;;;20.75;11.70;;;;;;;2.95;100.00;100447.50;6299626;28;20533;-87
2022/12/07 00:51:59;;;;;;;19.45;11.60;;;;;;;3.02;100.00;100448.03;6310870;28;20102;-87
2022/12/07 00:55:01;;;;;;;19.35;12.00;;;;;;;3.00;100.00;100453.22;6310158;28;20110;-87
2022/12/07 00:58:03;;;;;;;17.92;11.32;;;;;;;3.08;100.00;100444.34;6303793;28;20408;-87
2022/12/07 01:01:07;;;;;;;18.13;12.68;;;;;;;3.11;100.00;100451.91;6311737;28;20149;-87
2022/12/07 01:04:09;;;;;;;19.17;11.65;;;;;;;3.08;100.00;100450.31;6307391;28;20047;-87
2022/12/07 01:07:10;;;;;;;19.85;12.05;;;;;;;3.12;100.00;100450.97;6311963;28;20036;-87
2022/12/07 01:10:13;;;;;;;21.90;12.57;;;;;;;3.17;100.00;100452.41;6311867;28;20048;-87
2022/12/07 01:13:16;;;;;;;18.25;11.00;;;;;;;3.15;100.00;100455.94;6311922;28;20047;-87
2022/12/07 01:16:19;;;;;;;19.17;11.43;;;;;;;3.15;100.00;100451.66;6309851;28;20506;-87
2022/12/07 01:19:21;;;;;;;21.17;12.52;;;;;;;3.10;100.00;100458.72;6311710;28;20040;-87
2022/12/07 01:22:24;;;;;;;20.92;12.10;;;;;;;3.14;100.00;100462.78;6311643;28;20036;-87
2022/12/07 01:25:25;;;;;;;18.27;12.10;;;;;;;3.15;100.00;100459.31;6309913;28;20040;-87
2022/12/07 01:28:28;;;;;;;19.17;11.23;;;;;;;3.21;100.00;100464.16;6312773;28;20036;-87
2022/12/07 01:31:29;;;;;;;19.35;11.80;;;;;;;3.21;100.00;100461.59;6317318;28;20604;-87
2022/12/07 01:34:31;;;;;;;18.75;11.52;;;;;;;3.26;100.00;100471.59;6310252;28;20557;-87
2022/12/07 01:37:38;;;;;;;20.80;12.55;;;;;;;3.30;100.00;100467.16;6311615;28;20032;-87
2022/12/07 01:40:40;;;;;;;21.45;11.50;;;;;;;3.35;100.00;100473.69;6311153;28;20092;-87
2022/12/07 01:44:21;;;;;;;19.75;11.65;;;;;;;3.32;100.00;100473.84;6310301;28;20039;-87
2022/12/07 01:47:22;;;;;;;24.55;12.40;;;;;;;3.34;100.00;100461.81;6311622;28;20047;-87
2022/12/07 01:50:28;;;;;;;21.13;12.05;;;;;;;3.34;100.00;100463.53;6308271;28;20047;-87
2022/12/07 01:53:31;;;;;;;23.52;12.77;;;;;;;3.38;100.00;100468.44;6310801;28;20760;-87
2022/12/07 01:56:33;;;;;;;19.60;11.93;;;;;;;3.39;100.00;100466.69;6307614;28;20036;-87
2022/12/07 01:59:36;;;;;;;22.70;12.70;;;;;;;3.40;100.00;100460.66;6303541;28;20032;-87
2022/12/07 02:02:46;;;;;;;20.83;11.25;;;;;;;3.40;100.00;100465.78;6308552;28;20028;-87
2022/12/07 02:05:49;;;;;;;19.58;12.25;;;;;;;3.42;100.00;100457.13;6308095;28;20047;-87
2022/12/07 02:08:52;;;;;;;21.13;12.07;;;;;;;3.48;100.00;100463.69;6310061;28;20183;-87
2022/12/07 02:11:55;;;;;;;21.52;12.48;;;;;;;3.37;100.00;100450.59;6304083;28;20147;-87
2022/12/07 02:14:57;;;;;;;24.17;13.25;;;;;;;3.27;100.00;100452.78;6311774;28;20389;-87
2022/12/07 02:18:05;;;;;;;24.13;12.48;;;;;;;3.22;100.00;100454.75;6300349;28;20043;-87
2022/12/07 02:21:32;;;;;;;18.30;11.95;;;;;;;3.18;100.00;100448.97;6310123;28;20052;-87
2022/12/07 02:24:48;;;;;;;22.58;11.35;;;;;;;3.17;100.00;100449.84;6310243;28;20405;-87
2022/12/07 02:28:27;;;;;;;20.63;11.32;;;;;;;3.06;100.00;100448.75;6309989;28;20185;-87
2022/12/07 02:31:32;;;;;;;21.27;11.68;;;;;;;3.03;100.00;100452.25;6303924;28;20500;-87
2022/12/07 02:34:50;;;;;;;20.08;10.93;;;;;;;2.96;100.00;100443.25;6309450;28;20044;-87
2022/12/07 02:38:02;;;;;;;16.88;10.43;;;;;;;2.78;100.00;100440.69;6310102;28;20042;-87
2022/12/07 02:41:15;;;;;;;17.75;10.15;;;;;;;2.59;100.00;100432.22;6308913;28;20048;-87
2022/12/07 02:44:23;;;;;;;17.77;11.70;;;;;;;2.45;100.00;100442.25;6308706;28;20908;-87
2022/12/07 02:47:26;;;;;;;17.23;10.27;;;;;;;2.46;100.00;100451.56;6309219;28;20445;-87
2022/12/07 02:50:28;;;;;;;19.58;11.65;;;;;;;2.49;100.00;100452.25;6296974;28;20041;-87
2022/12/07 02:53:37;;;;;;;21.52;10.75;;;;;;;2.47;100.00;100450.69;6308059;28;20032;-87
2022/12/07 02:57:04;;;;;;;18.15;11.20;;;;;;;2.44;100.00;100446.53;6292095;28;20036;-87
2022/12/07 03:00:15;;;;;;;18.83;10.95;;;;;;;2.46;100.00;100443.91;6307747;28;20044;-87
2022/12/07 03:03:18;;;;;;;20.35;10.27;;;;;;;2.48;100.00;100449.78;6305077;28;20032;-87
2022/12/07 03:06:27;;;;;;;24.88;12.00;;;;;;;2.57;100.00;100447.63;6309579;28;20055;-86
2022/12/07 03:09:38;;;;;;;19.48;11.40;;;;;;;2.53;100.00;100448.66;6304534;28;20036;-87
2022/12/07 03:12:53;;;;;;;21.80;12.55;;;;;;;2.43;100.00;100441.50;6302634;28;20048;-87
2022/12/07 03:16:13;;;;;;;22.23;12.80;;;;;;;2.43;100.00;100451.72;6300731;28;20402;-87
2022/12/07 03:19:19;;;;;;;21.27;11.85;;;;;;;2.51;100.00;100450.47;6298062;28;20052;-87
2022/12/07 03:22:23;;;;;;;21.02;11.93;;;;;;;2.43;100.00;100451.72;6307672;28;20488;-87
2022/12/07 03:25:25;;;;;;;20.50;10.02;;;;;;;2.58;100.00;100449.28;6305888;28;20044;-87
2022/12/07 03:28:34;;;;;;;19.50;10.43;;;;;;;2.69;100.00;100445.41;6306213;28;20485;-87
2022/12/07 03:31:46;;;;;;;19.52;9.95;;;;;;;2.78;100.00;100438.13;6300880;28;20051;-87
2022/12/07 03:34:56;;;;;;;17.27;8.85;;;;;;;2.78;100.00;100442.38;6304053;28;20351;-87
2022/12/07 03:38:18;;;;;;;15.25;8.18;;;;;;;2.73;100.00;100437.50;6305903;28;20051;-87
2022/12/07 03:41:39;;;;;;;19.88;8.88;;;;;;;2.64;100.00;100443.06;6305404;28;20048;-87
2022/12/07 03:44:46;;;;;;;15.27;8.48;;;;;;;2.66;100.00;100436.16;6304859;28;20473;-87
2022/12/07 03:48:11;;;;;;;15.65;8.30;;;;;;;2.64;100.00;100440.50;6321577;28;20674;-86
2022/12/07 03:51:44;;;;;;;18.65;8.63;;;;;;;2.56;100.00;100434.94;6320156;28;20436;-87
2022/12/07 03:54:46;;;;;;;15.65;7.95;;;;;;;2.55;100.00;100435.81;6299204;28;20055;-87
2022/12/07 03:57:51;;;;;;;14.52;7.97;;;;;;;2.47;100.00;100448.94;6314359;28;20168;-87
2022/12/07 04:00:53;;;;;;;15.30;7.68;;;;;;;2.44;100.00;100443.16;6316786;28;20453;-87
2022/12/07 04:03:55;;;;;;;15.68;7.80;;;;;;;2.52;100.00;100452.13;6314264;28;20509;-87
2022/12/07 04:06:56;;;;;;;14.38;8.10;;;;;;;2.55;100.00;100451.16;6308659;28;20055;-87
2022/12/07 04:09:58;;;;;;;17.65;7.72;;;;;;;2.61;100.00;100455.13;6311217;28;20036;-87
2022/12/07 04:13:00;;;;;;;17.25;8.63;;;;;;;2.66;100.00;100454.03;6311561;28;20542;-87
2022/12/07 04:16:02;;;;;;;16.35;8.30;;;;;;;2.72;100.00;100452.91;6312491;28;20522;-87
2022/12/07 04:19:04;;;;;;;17.55;8.57;;;;;;;2.69;100.00;100456.44;6312866;28;20032;-87
2022/12/07 04:22:06;;;;;;;16.02;8.40;;;;;;;2.70;100.00;100450.41;6314564;28;20040;-87
2022/12/07 04:25:08;;;;;;;19.58;9.55;;;;;;;2.71;100.00;100449.53;6315147;28;20169;-87
2022/12/07 04:28:10;;;;;;;16.23;8.20;;;;;;;2.73;100.00;100444.34;6313745;28;20056;-87
2022/12/07 04:31:12;;;;;;;17.55;8.77;;;;;;;2.74;100.00;100436.59;6314746;28;20481;-87
2022/12/07 04:34:15;;;;;;;20.08;8.88;;;;;;;2.73;100.00;100429.84;6315226;28;20444;-87
2022/12/07 04:37:17;;;;;;;19.80;8.38;;;;;;;2.69;100.00;100424.94;6314432;28;20770;-87
2022/12/07 04:40:18;;;;;;;15.38;8.07;;;;;;;2.67;100.00;100427.56;6315395;28;20490;-87
2022/12/07 04:43:20;;;;;;;18.67;8.15;;;;;;;2.73;100.00;100432.41;6315280;28;20036;-87
2022/12/07 04:46:23;;;;;;;19.20;8.27;;;;;;;2.74;100.00;100426.38;6315435;28;20047;-87
2022/12/07 04:49:26;;;;;;;17.85;8.27;;;;;;;2.74;100.00;100431.50;6313778;28;20048;-87
2022/12/07 04:52:27;;;;;;;15.82;6.82;;;;;;;2.64;100.00;100420.06;6314351;28;20178;-87
2022/12/07 04:55:29;;;;;;;18.83;8.00;;;;;;;2.52;100.00;100418.09;6315221;28;20509;-87
2022/12/07 04:58:31;;;;;;;12.57;6.35;;;;;;;2.43;100.00;100409.09;6314401;28;20067;-87
2022/12/07 05:01:33;;;;;;;12.18;6.50;;;;;;;2.44;100.00;100413.34;6312152;28;20071;-87
2022/12/07 05:04:35;;;;;;;13.85;5.88;;;;;;;2.47;100.00;100410.63;6313368;28;20047;-87
2022/12/07 05:07:37;;;;;;;10.73;6.78;;;;;;;2.51;100.00;100408.75;6305946;28;20040;-86
2022/12/07 05:10:38;;;;;;;13.57;6.43;;;;;;;2.54;100.00;100416.28;6309908;28;20508;-86
2022/12/07 05:13:40;;;;;;;11.90;6.05;;;;;;;2.56;100.00;100401.72;6313187;28;20075;-87
2022/12/07 05:16:45;;;;;;;12.80;5.47;;;;;;;2.59;100.00;100422.00;6314595;28;20502;-86
2022/12/07 05:19:46;;;;;;;11.38;5.63;;;;;;;2.74;100.00;100400.00;6309856;28;20512;-87
2022/12/07 05:22:48;;;;;;;9.27;4.70;;;;;;;2.68;100.00;100403.66;6312454;28;20048;-86
2022/12/07 05:25:50;;;;;;;10.75;5.07;;;;;;;2.63;100.00;100397.94;6313254;28;20044;-87
2022/12/07 05:28:56;;;;;;;14.18;5.80;;;;;;;2.55;100.00;100402.59;6314073;28;20086;-87
2022/12/07 05:31:57;;;;;;;11.13;5.07;;;;;;;2.54;100.00;100401.78;6313601;28;20071;-86
2022/12/07 05:34:59;;;;;;;8.65;4.60;;;;;;;2.57;100.00;100403.34;6304182;28;20058;-87
2022/12/07 05:38:01;;;;;;;8.95;5.30;;;;;;;2.57;100.00;100405.91;6311410;28;20051;-86
2022/12/07 05:41:05;;;;;;;8.90;4.70;;;;;;;2.63;100.00;100403.06;6313676;28;20036;-87
2022/12/07 05:44:06;;;;;;;10.40;4.95;;;;;;;2.72;100.00;100400.06;6312055;28;20116;-87
2022/12/07 05:47:09;;;;;;;8.70;4.82;;;;;;;2.73;100.00;100391.50;6312611;28;20051;-87
2022/12/07 05:50:10;;;;;;;9.68;4.60;;;;;;;2.66;100.00;100402.06;6314029;28;20077;-86
2022/12/07 05:53:12;;;;;;;9.55;4.15;;;;;;;2.60;100.00;100390.44;6311609;28;20486;-86
2022/12/07 05:56:22;;;;;;;8.10;4.55;;;;;;;2.59;100.00;100397.28;6311221;28;20055;-86
2022/12/07 05:59:24;;;;;;;7.53;4.15;;;;;;;2.67;100.00;100401.19;6301875;28;20383;-86
2022/12/07 06:02:26;;;;;;;8.38;4.65;;;;;;;2.69;100.00;100400.22;6311735;28;20079;-87
2022/12/07 06:05:28;;;;;;;8.93;3.92;;;;;;;2.67;100.00;100391.78;6311545;28;20436;-86
2022/12/07 06:08:31;;;;;;;9.38;4.05;;;;;;;2.57;100.00;100403.34;6306807;28;20036;-87
2022/12/07 06:14:53;;;;;;;6.33;3.80;;;;;;;2.62;100.00;100403.16;6308935;28;20048;-86
2022/12/07 06:17:55;;;;;;;8.88;3.92;;;;;;;2.66;100.00;100405.47;6311882;28;20043;-87
2022/12/07 06:20:57;;;;;;;8.25;3.70;;;;;;;2.64;100.00;100402.16;6307060;28;20638;-87
2022/12/07 06:23:59;;;;;;;11.13;3.65;;;;;;;2.59;100.00;100402.38;6312777;28;20070;-86
2022/12/07 06:27:01;;;;;;;8.93;3.80;;;;;;;2.56;100.00;100407.66;6311945;28;20055;-86
2022/12/07 06:30:06;;;;;;;7.97;3.60;;;;;;;2.56;100.00;100412.75;6311226;28;20048;-86
2022/12/07 06:33:08;;;;;;;11.30;4.38;;;;;;;2.52;100.00;100403.56;6309485;28;20304;-87
2022/12/07 06:36:10;;;;;;;9.00;3.85;;;;;;;2.53;100.00;100410.31;6313091;28;20070;-87
2022/12/07 06:39:12;;;;;;;10.30;3.40;;;;;;;2.55;100.00;100407.72;6304273;28;20043;-86
2022/12/07 06:42:13;;;;;;;7.18;3.72;;;;;;;2.50;100.00;100410.47;6304227;28;20040;-86
2022/12/07 06:45:15;;;;;;;8.30;2.78;;;;;;;2.45;100.00;100412.44;6310718;28;20036;-86
2022/12/07 06:48:17;;;;;;;7.65;3.10;;;;;;;2.40;100.00;100411.00;6312313;28;20133;-86
2022/12/07 06:51:19;;;;;;;7.68;3.35;;;;;;;2.42;100.00;100416.88;6311121;28;20036;-86
2022/12/07 06:54:20;;;;;;;7.55;3.70;;;;;;;2.34;100.00;100428.25;6309465;28;20048;-86
2022/12/07 06:57:22;;;;;;;6.35;3.53;;;;;;;2.24;100.00;100413.44;6300810;28;20048;-87
2022/12/07 07:00:24;;;;;;;7.47;3.00;;;;;;;2.14;100.00;100420.69;6310778;28;20501;-86
2022/12/07 07:03:26;;;;;;;5.13;2.67;;;;;;;2.05;100.00;100416.81;6309634;28;20051;-86
2022/12/07 07:06:28;;;;;;;5.70;2.92;;;;;;;1.98;100.00;100422.28;6311581;28;20455;-87
2022/12/07 07:09:29;;;;;;;9.55;3.63;;;;;;;2.02;100.00;100429.72;6311294;28;20059;-86
2022/12/07 07:12:31;;;;;;;5.05;2.42;;;;;;;2.10;100.00;100426.84;6310822;28;20047;-86
2022/12/07 07:15:34;;;;;;;4.85;2.15;;;;;;;2.07;100.00;100434.63;6311476;28;20039;-86
2022/12/07 07:18:36;;;;;;;7.25;2.38;;;;;;;2.10;100.00;100431.94;6312111;28;20048;-86
2022/12/07 07:21:38;;;;;;;4.30;2.20;;;;;;;2.10;100.00;100439.59;6305214;28;20052;-86
2022/12/07 07:24:40;;;;;;;3.60;2.25;;;;;;;2.04;100.00;100440.72;6305332;28;20043;-87
2022/12/07 07:27:42;;;;;;;6.60;1.90;;;;;;;2.02;100.00;100446.78;6311765;28;20048;-86
2022/12/07 07:30:44;;;;;;;7.60;2.40;;;;;;;2.10;100.00;100447.25;6303028;28;20135;-87
2022/12/07 07:33:47;;;;;;;5.78;2.22;;;;;;;2.07;100.00;100449.94;6309906;28;20040;-86
2022/12/07 07:36:48;;;;;;;6.68;2.22;;;;;;;2.04;100.00;100453.47;6311336;28;20044;-86
2022/12/07 07:39:50;;;;;;;6.47;2.10;;;;;;;2.15;100.00;100451.25;6309276;28;20144;-86
2022/12/07 07:42:53;;;;;;;4.57;1.80;;;;;;;2.06;100.00;100458.50;6309563;28;20039;-86
2022/12/07 07:45:55;;;;;;;6.40;1.92;;;;;;;2.06;100.00;100449.13;6310649;28;20051;-86
2022/12/07 07:48:57;;;;;;;3.65;1.67;;;;;;;2.03;100.00;100454.34;6309011;28;20039;-86
2022/12/07 07:51:59;;;;;;;7.10;2.10;;;;;;;1.94;100.00;100457.34;6301072;28;20055;-86
2022/12/07 07:55:01;;;;;;;5.82;1.50;;;;;;;2.01;100.00;100452.75;6310893;28;20544;-86
2022/12/07 07:58:03;;;;;;;5.20;2.10;;;;;;;1.93;100.00;100455.66;6310723;28;20055;-87
2022/12/07 08:01:11;;;;;;;6.45;1.90;;;;;;;2.00;100.00;100462.16;6311280;28;20033;-86
2022/12/07 08:04:13;;;;;;;6.28;1.67;;;;;;;2.07;100.00;100461.00;6311556;28;20455;-86
2022/12/07 08:07:15;;;;;;;4.13;1.67;;;;;;;2.19;100.00;100469.81;6309988;28;20040;-86
2022/12/07 08:10:17;;;;;;;6.45;2.08;;;;;;;2.33;100.00;100475.13;6292193;28;20047;-86
2022/12/07 08:13:18;;;;;;;6.32;1.80;;;;;;;2.48;100.00;100471.03;6309223;28;20052;-86
2022/12/07 08:16:20;;;;;;;4.97;1.70;;;;;;;2.54;100.00;100460.53;6307545;28;20040;-86
2022/12/07 08:19:23;;;;;;;4.45;1.60;;;;;;;2.55;100.00;100456.25;6309385;28;20037;-86
2022/12/07 08:22:24;;;;;;;5.30;1.95;;;;;;;2.59;100.00;100445.00;6298995;28;20036;-86
2022/12/07 08:25:27;;;;;;;3.75;1.73;;;;;;;2.59;100.00;100443.28;6310122;28;20040;-86
2022/12/07 08:28:30;;;;;;;3.55;1.50;;;;;;;2.69;100.00;100448.78;6310747;28;20036;-86
2022/12/07 08:31:32;;;;;;;5.80;1.80;;;;;;;2.77;100.00;100446.66;6310077;28;20044;-86
2022/12/07 08:34:34;;;;;;;6.13;1.77;;;;;;;2.81;100.00;100437.16;6306581;28;20051;-86
2022/12/07 08:37:36;;;;;;;4.97;2.00;;;;;;;2.77;100.00;100426.22;6310448;28;20543;-86
2022/12/07 08:40:41;;;;;;;3.42;1.80;;;;;;;2.85;100.00;100423.28;6311082;28;20035;-86
2022/12/07 08:43:43;;;;;;;5.47;2.33;;;;;;;2.91;100.00;100419.63;6314594;28;20061;-86
2022/12/07 08:46:54;;;;;;;5.35;2.25;;;;;;;2.95;100.00;100418.56;6315128;28;20168;-86
2022/12/07 08:49:55;;;;;;;3.35;1.60;;;;;;;3.00;100.00;100422.53;6313031;28;20079;-86
2022/12/07 08:52:59;;;;;;;2.65;2.00;;;;;;;2.99;100.00;100427.75;6314178;28;20621;-86
2022/12/07 08:56:01;;;;;;;3.97;1.70;;;;;;;3.04;100.00;100427.53;6307696;28;20055;-86
2022/12/07 08:59:04;;;;;;;2.92;1.58;;;;;;;3.10;100.00;100425.47;6313441;28;20044;-86
2022/12/07 09:02:09;;;;;;;3.45;1.60;;;;;;;3.09;100.00;100421.28;6312603;28;20477;-86
2022/12/07 09:05:12;;;;;;;5.00;1.70;;;;;;;3.13;100.00;100417.66;6311717;28;20040;-87
2022/12/07 09:08:20;;;;;;;4.10;1.35;;;;;;;3.16;100.00;100417.50;6309901;28;20523;-86
2022/12/07 09:11:22;;;;;;;6.50;1.58;;;;;;;3.15;100.00;100420.13;6310789;28;20431;-86
2022/12/07 09:14:29;;;;;;;2.25;1.48;;;;;;;3.17;100.00;100431.13;6307226;28;20119;-86
2022/12/07 09:17:35;;;;;;;3.72;1.67;;;;;;;3.18;100.00;100414.84;6311970;28;20054;-87
2022/12/07 09:20:37;;;;;;;2.83;1.50;;;;;;;3.10;100.00;100420.34;6303502;28;20040;-87
2022/12/07 09:23:42;;;;;;;4.45;1.55;;;;;;;3.00;100.00;100411.50;6309291;28;20119;-86
2022/12/07 09:26:44;;;;;;;4.40;1.50;;;;;;;2.96;100.00;100402.34;6309016;28;20043;-87
2022/12/07 09:29:46;;;;;;;3.90;1.50;;;;;;;2.90;100.00;100408.56;6308919;28;20036;-86
2022/12/07 09:32:48;;;;;;;3.28;1.23;;;;;;;2.93;100.00;100418.66;6300794;28;20052;-86
2022/12/07 09:35:52;;;;;;;3.28;1.52;;;;;;;2.99;100.00;100409.84;6310118;28;20105;-86
2022/12/07 09:38:55;;;;;;;4.82;1.38;;;;;;;3.06;100.00;100406.09;6313241;28;20531;-86
2022/12/07 09:41:58;;;;;;;3.47;1.35;;;;;;;3.12;100.00;100407.50;6312583;28;20113;-86
2022/12/07 09:45:01;;;;;;;3.47;1.20;;;;;;;3.12;100.00;100410.88;6309981;28;20052;-86
2022/12/07 09:48:04;;;;;;;2.67;1.60;;;;;;;3.05;100.00;100403.59;6310949;28;20090;-86
2022/12/07 09:51:22;;;;;;;3.33;1.35;;;;;;;2.97;100.00;100402.25;6310964;28;20135;-86
2022/12/07 09:54:26;;;;;;;2.20;1.30;;;;;;;2.94;100.00;100396.47;6299331;28;20048;-86
2022/12/07 09:57:31;;;;;;;3.72;1.60;;;;;;;2.98;100.00;100403.91;6308225;28;20497;-86
2022/12/07 10:00:33;;;;;;;3.85;1.30;;;;;;;3.15;100.00;100403.06;6310499;28;20177;-86
2022/12/07 10:03:38;;;;;;;2.42;1.20;;;;;;;3.27;100.00;100408.47;6310420;28;20153;-86
2022/12/07 10:06:45;;;;;;;3.38;1.30;;;;;;;3.33;100.00;100403.88;6308404;28;20044;-86
2022/12/07 10:09:48;;;;;;;4.80;1.35;;;;;;;3.40;100.00;100406.94;6312797;28;20077;-87
2022/12/07 10:13:06;;;;;;;3.50;1.40;;;;;;;3.47;100.00;100399.78;6310639;28;20711;-86
2022/12/07 10:16:38;;;;;;;2.22;1.10;;;;;;;3.50;100.00;100400.44;6312132;28;20043;-86
2022/12/07 10:19:41;;;;;;;3.75;1.20;;;;;;;3.61;100.00;100400.72;6310671;28;20064;-86
2022/12/07 10:23:04;;;;;;;1.92;1.10;;;;;;;3.62;100.00;100387.00;6309189;28;20040;-87
2022/12/07 10:26:28;;;;;;;4.28;1.55;;;;;;;3.61;100.00;100382.81;6311491;28;20043;-85
2022/12/07 10:29:34;;;;;;;2.40;1.38;;;;;;;3.71;100.00;100385.72;6312014;28;20044;-85
2022/12/07 10:32:36;;;;;;;13.23;1.92;;;;;;;3.74;100.00;100388.09;6305032;28;20047;-85
2022/12/07 10:35:43;;;;;;;2.75;1.25;;;;;;;3.73;100.00;100381.34;6310268;28;20502;-85
2022/12/07 10:38:51;;;;;;;6.07;1.98;;;;;;;3.67;100.00;100377.34;6309029;28;20429;-85
2022/12/07 10:42:02;;;;;;;3.85;1.42;;;;;;;3.65;100.00;100374.06;6309778;28;20066;-88
2022/12/07 10:45:12;;;;;;;3.72;1.45;;;;;;;3.66;100.00;100375.72;6310940;28;20386;-85
2022/12/07 10:48:32;;;;;;;6.30;1.58;;;;;;;3.85;100.00;100374.72;6320728;28;20044;-85
2022/12/07 10:51:46;;;;;;;5.40;1.70;;;;;;;3.83;100.00;100366.31;6312628;28;20059;-85
2022/12/07 10:55:20;;;;;;;9.48;2.85;;;;;;;3.95;100.00;100375.91;6311617;28;20052;-85
2022/12/07 10:58:52;;;;;;;3.88;1.75;;;;;;;3.96;100.00;100363.91;6312456;28;20044;-85
2022/12/07 11:02:17;;;;;;;5.68;1.83;;;;;;;4.00;100.00;100353.44;6312031;28;20132;-85
2022/12/07 11:05:26;;;;;;;4.35;1.80;;;;;;;4.02;100.00;100366.13;6206502;28;20074;-85
2022/12/07 11:08:34;;;;;;;3.53;1.67;;;;;;;4.15;100.00;100353.47;6204403;28;20053;-85
2022/12/07 11:11:47;;;;;;;4.75;1.42;;;;;;;4.25;100.00;100344.41;6204091;28;20050;-85
2022/12/07 11:15:04;;;;;;;3.92;1.80;;;;;;;4.13;100.00;100353.59;6209073;28;20522;-85
2022/12/07 11:18:27;;;;;;;5.35;1.73;;;;;;;4.06;100.00;100350.53;6201221;28;20416;-85
2022/12/07 11:21:50;;;;;;;3.42;1.42;;;;;;;3.94;100.00;100353.75;6186220;28;20051;-85
2022/12/07 11:25:02;;;;;;;4.95;1.70;;;;;;;3.88;100.00;100344.69;6199907;28;20116;-85
2022/12/07 11:28:25;;;;;;;2.33;1.60;;;;;;;3.84;100.00;100335.50;6203582;28;20507;-85
2022/12/07 11:32:00;;;;;;;6.32;1.40;;;;;;;3.81;100.00;100347.66;6202561;28;20606;-90
2022/12/07 11:35:14;;;;;;;2.92;1.45;;;;;;;3.59;100.00;100351.34;6203666;28;20455;-85
2022/12/07 11:38:21;;;;;;;7.90;2.20;;;;;;;3.64;100.00;100357.03;6207650;28;20045;-85
2022/12/07 11:41:34;;;;;;;5.57;1.95;;;;;;;3.66;100.00;100362.09;6231881;28;20498;-85
2022/12/07 11:45:15;;;;;;;2.10;1.73;;;;;;;3.68;100.00;100355.16;6310429;28;20048;-85
2022/12/07 11:48:33;;;;;;;2.95;1.45;;;;;;;3.70;100.00;100353.31;6308301;28;20047;-85
2022/12/07 11:51:38;;;;;;;7.45;1.90;;;;;;;3.81;100.00;100352.78;6308455;28;20508;-85
2022/12/07 11:54:45;;;;;;;3.50;1.42;;;;;;;3.85;100.00;100344.00;6292803;28;20549;-85
2022/12/07 11:57:56;;;;;;;4.13;1.83;;;;;;;3.82;100.00;100331.38;6286670;28;20040;-85
2022/12/07 12:01:36;;;;;;;5.30;1.25;;;;;;;3.70;100.00;100309.00;6309553;28;20469;-85
2022/12/07 12:04:46;;;;;;;6.07;1.52;;;;;;;3.71;100.00;100306.34;6309787;28;20044;-85
2022/12/07 12:08:00;;;;;;;4.63;1.58;;;;;;;3.85;100.00;100303.88;6308891;28;20044;-85
2022/12/07 12:11:50;;;;;;;3.10;1.42;;;;;;;4.02;100.00;100295.25;6308075;28;20040;-85
2022/12/07 12:15:26;;;;;;;6.50;1.63;;;;;;;4.10;100.00;100297.41;6299041;28;20052;-86
2022/12/07 12:18:53;;;;;;;4.97;1.70;;;;;;;4.07;100.00;100288.16;6316370;28;20039;-85
2022/12/07 12:22:01;;;;;;;3.70;1.73;;;;;;;4.03;100.00;100290.97;6314019;28;20529;-85
2022/12/07 12:25:06;;;;;;;7.72;1.88;;;;;;;4.02;100.00;100287.56;6314216;28;20496;-85
2022/12/07 12:28:25;;;;;;;6.40;2.33;;;;;;;4.05;100.00;100284.84;6314970;28;20040;-85
2022/12/07 12:31:27;;;;;;;7.50;2.08;;;;;;;4.02;100.00;100287.56;6314596;28;20044;-85
2022/12/07 12:34:33;;;;;;;5.28;2.05;;;;;;;4.09;100.00;100285.50;6314734;28;20040;-85
2022/12/07 12:37:35;;;;;;;5.03;1.60;;;;;;;4.09;100.00;100278.63;6315018;28;20497;-85
2022/12/07 12:40:43;;;;;;;4.65;1.73;;;;;;;4.15;100.00;100284.31;6311571;28;20056;-85
2022/12/07 12:43:52;;;;;;;5.50;1.63;;;;;;;4.26;100.00;100276.88;6309789;28;20055;-85
2022/12/07 12:46:55;;;;;;;6.57;1.80;;;;;;;4.44;100.00;100269.88;6305077;28;20243;-85
2022/12/07 12:50:17;;;;;;;9.18;2.33;;;;;;;4.34;100.00;100264.44;6312989;28;20036;-85
2022/12/07 12:53:29;;;;;;;7.65;2.47;;;;;;;4.21;100.00;100263.50;6304077;28;20036;-85
2022/12/07 12:57:10;;;;;;;4.97;1.40;;;;;;;4.16;100.00;100255.25;6310994;28;20051;-85
2022/12/07 13:00:23;;;;;;;6.57;2.15;;;;;;;4.04;100.00;100260.13;6203561;28;20054;-85
2022/12/07 13:03:28;;;;;;;4.43;1.45;;;;;;;4.14;100.00;100260.44;6210066;28;20508;-85
2022/12/07 13:06:35;;;;;;;5.32;1.50;;;;;;;4.20;100.00;100254.16;6210521;28;20061;-85
2022/12/07 13:09:43;;;;;;;4.72;1.25;;;;;;;4.26;100.00;100256.38;6212046;28;20096;-85
2022/12/07 13:12:56;;;;;;;6.63;1.98;;;;;;;4.29;100.00;100257.00;6190986;28;20050;-85
2022/12/07 13:16:11;;;;;;;4.50;1.23;;;;;;;4.36;100.00;100254.94;6205191;28;20043;-85
2022/12/07 13:19:40;;;;;;;5.00;1.92;;;;;;;4.37;100.00;100243.75;6204230;28;20132;-85
2022/12/07 13:22:46;;;;;;;3.70;1.60;;;;;;;4.27;100.00;100247.75;6209104;28;20184;-85
2022/12/07 13:25:59;;;;;;;5.70;1.80;;;;;;;4.18;100.00;100244.00;6208191;28;20094;-85
2022/12/07 13:29:10;;;;;;;7.78;1.80;;;;;;;4.14;100.00;100242.53;6208039;28;20514;-85
2022/12/07 13:32:24;;;;;;;3.67;1.55;;;;;;;4.09;100.00;100247.91;6206816;28;20125;-85
2022/12/07 13:35:37;;;;;;;6.97;1.58;;;;;;;4.02;100.00;100244.03;6217454;28;20046;-85
2022/12/07 13:38:50;;;;;;;5.45;1.60;;;;;;;3.95;100.00;100232.50;6309065;28;20032;-85
2022/12/07 13:41:54;;;;;;;5.93;1.80;;;;;;;3.94;100.00;100230.03;6310608;28;20109;-85
2022/12/07 13:44:59;;;;;;;8.50;1.73;;;;;;;3.87;100.00;100234.66;6312339;28;20036;-85
2022/12/07 13:48:03;;;;;;;4.97;1.42;;;;;;;3.87;100.00;100239.78;6307163;28;20043;-85
2022/12/07 13:51:04;;;;;;;5.80;1.63;;;;;;;3.82;100.00;100240.03;6308009;28;20055;-86
2022/12/07 13:54:10;;;;;;;5.32;1.35;;;;;;;3.79;100.00;100235.09;6297711;28;20127;-85
2022/12/07 13:57:12;;;;;;;6.03;1.58;;;;;;;3.76;100.00;100229.31;6310837;28;20043;-85
2022/12/07 14:00:21;;;;;;;7.30;1.85;;;;;;;3.73;100.00;100225.19;6307437;28;20395;-85
2022/12/07 14:03:33;;;;;;;5.88;1.48;;;;;;;3.71;100.00;100224.44;6308107;28;20470;-85
2022/12/07 14:06:35;;;;;;;2.78;1.10;;;;;;;3.76;100.00;100219.91;6306211;28;20036;-85
2022/12/07 14:09:37;;;;;;;5.32;1.20;;;;;;;3.72;100.00;100220.16;6300239;28;20082;-85
2022/12/07 14:12:42;;;;;;;4.00;1.25;;;;;;;3.73;100.00;100221.81;6308228;28;20047;-85
2022/12/07 14:15:50;;;;;;;2.38;1.40;;;;;;;3.76;100.00;100221.63;6304825;28;20036;-85
2022/12/07 14:18:52;;;;;;;7.63;2.17;;;;;;;3.67;100.00;100220.41;6305484;28;20113;-85
2022/12/07 14:22:20;;;;;;;6.80;1.35;;;;;;;3.65;100.00;100224.78;6311923;28;20048;-85
2022/12/07 14:25:25;;;;;;;6.00;1.38;;;;;;;3.70;100.00;100233.03;6230579;28;20072;-85